createdAt,value
2022-12-25T00:01:19.175Z,83.34
2022-12-25T00:03:46.718Z,83.32
2022-12-25T00:06:13.897Z,83.19
2022-12-25T00:08:41.121Z,83.35
2022-12-25T00:11:12.622Z,83.05
2022-12-25T00:13:40.344Z,83.45
2022-12-25T00:16:15.167Z,83.53
2022-12-25T00:18:42.325Z,83.87
2022-12-25T00:21:10.759Z,83.86
2022-12-25T00:23:37.786Z,83.99
2022-12-25T00:26:07.390Z,84.43
2022-12-25T00:28:36.140Z,84.33
2022-12-25T00:31:11.963Z,84.31
2022-12-25T00:33:40.942Z,84.19
2022-12-25T00:36:10.117Z,84.30
2022-12-25T00:38:39.009Z,84.36
2022-12-25T00:41:15.192Z,84.34
2022-12-25T00:43:42.513Z,84.34
2022-12-25T00:46:11.676Z,84.39
2022-12-25T00:48:39.068Z,84.43
2022-12-25T00:51:10.924Z,84.22
2022-12-25T00:53:38.166Z,84.31
2022-12-25T00:56:06.891Z,84.75
2022-12-25T00:58:35.260Z,84.75
2022-12-25T01:01:03.404Z,84.50
2022-12-25T01:03:30.636Z,84.50
2022-12-25T01:06:08.627Z,84.85
2022-12-25T01:08:38.146Z,84.76
2022-12-25T01:11:07.464Z,84.75
2022-12-25T01:13:37.182Z,85.05
2022-12-25T01:16:08.939Z,84.61
2022-12-25T01:18:36.557Z,84.35
2022-12-25T01:21:12.253Z,84.40
2022-12-25T01:23:39.354Z,84.68
2022-12-25T01:26:08.140Z,84.72
2022-12-25T01:28:36.285Z,84.66
2022-12-25T01:31:04.893Z,84.69
2022-12-25T01:33:32.132Z,84.68
2022-12-25T01:35:59.467Z,85.14
2022-12-25T01:38:26.504Z,85.24
2022-12-25T01:40:53.577Z,84.69
2022-12-25T01:43:31.823Z,84.73
2022-12-25T01:45:59.017Z,84.94
2022-12-25T01:48:30.713Z,85.27
2022-12-25T01:51:03.490Z,85.46
2022-12-25T01:53:31.044Z,85.72
2022-12-25T01:56:03.842Z,85.90
2022-12-25T01:58:32.082Z,85.93
2022-12-25T02:00:59.840Z,85.88
2022-12-25T02:03:26.996Z,86.09
2022-12-25T02:05:54.398Z,86.09
2022-12-25T02:08:22.409Z,86.22
2022-12-25T02:10:49.607Z,86.25
2022-12-25T02:13:19.550Z,86.07
2022-12-25T02:16:01.406Z,86.08
2022-12-25T02:18:46.782Z,86.43
2022-12-25T02:21:37.590Z,86.26
2022-12-25T02:24:32.295Z,86.17
2022-12-25T02:27:14.650Z,86.21
2022-12-25T02:29:50.942Z,86.55
2022-12-25T02:32:30.371Z,86.81
2022-12-25T02:34:57.439Z,86.81
2022-12-25T02:37:40.911Z,86.86
2022-12-25T02:40:45.699Z,86.98
2022-12-25T02:43:36.892Z,87.19
2022-12-25T02:46:27.509Z,86.94
2022-12-25T02:49:19.875Z,86.81
2022-12-25T02:52:17.367Z,86.55
2022-12-25T02:55:07.560Z,86.82
2022-12-25T02:57:58.277Z,87.13
2022-12-25T03:00:44.488Z,87.36
2022-12-25T03:03:33.426Z,87.32
2022-12-25T03:06:22.455Z,87.71
2022-12-25T03:08:54.952Z,87.57
2022-12-25T03:11:31.254Z,87.61
2022-12-25T03:14:23.596Z,87.69
2022-12-25T03:16:54.370Z,87.70
2022-12-25T03:19:45.052Z,87.75
2022-12-25T03:22:58.072Z,87.62
2022-12-25T03:25:43.870Z,87.74
2022-12-25T03:28:11.010Z,87.68
2022-12-25T03:31:08.914Z,88.19
2022-12-25T03:34:23.454Z,88.33
2022-12-25T03:37:17.648Z,88.48
2022-12-25T03:40:23.173Z,88.76
2022-12-25T03:43:17.778Z,89.48
2022-12-25T03:46:11.033Z,89.35
2022-12-25T03:49:00.543Z,89.71
2022-12-25T03:51:52.758Z,89.82
2022-12-25T03:54:43.939Z,90.15
2022-12-25T03:57:31.080Z,90.39
2022-12-25T04:00:16.915Z,90.81
2022-12-25T04:03:02.345Z,90.72
2022-12-25T04:05:47.964Z,90.71
2022-12-25T04:08:33.677Z,90.87
2022-12-25T04:11:19.330Z,91.21
2022-12-25T04:14:06.574Z,91.39
2022-12-25T04:16:52.233Z,91.63
2022-12-25T04:19:38.060Z,91.69
2022-12-25T04:22:23.887Z,91.88
2022-12-25T04:25:10.277Z,92.14
2022-12-25T04:27:56.001Z,92.14
2022-12-25T04:30:41.726Z,92.45
2022-12-25T04:33:27.579Z,92.46
2022-12-25T04:36:09.787Z,92.53
2022-12-25T04:38:38.648Z,92.39
2022-12-25T04:41:06.665Z,92.36
2022-12-25T04:43:33.888Z,92.37
2022-12-25T04:46:02.486Z,92.45
2022-12-25T04:48:32.391Z,92.50
2022-12-25T04:51:09.240Z,92.43
2022-12-25T04:53:36.299Z,92.58
2022-12-25T04:56:03.511Z,92.31
2022-12-25T04:58:31.919Z,92.44
2022-12-25T05:01:03.821Z,92.40
2022-12-25T05:03:31.521Z,92.60
2022-12-25T05:05:59.044Z,93.05
2022-12-25T05:08:26.884Z,92.91
2022-12-25T05:10:53.817Z,93.40
2022-12-25T05:13:20.973Z,93.59
2022-12-25T05:15:48.129Z,93.78
2022-12-25T05:18:15.547Z,93.33
2022-12-25T05:20:42.626Z,93.15
2022-12-25T05:23:12.282Z,93.23
2022-12-25T05:25:40.940Z,93.38
2022-12-25T05:28:08.385Z,92.92
2022-12-25T05:30:35.383Z,93.15
2022-12-25T05:33:03.374Z,93.26
2022-12-25T05:35:30.430Z,93.42
2022-12-25T05:37:57.571Z,93.62
2022-12-25T05:40:24.680Z,93.58
2022-12-25T05:42:51.783Z,93.56
2022-12-25T05:45:18.781Z,94.14
2022-12-25T05:47:45.761Z,93.96
2022-12-25T05:50:12.793Z,94.25
2022-12-25T05:52:39.948Z,94.56
2022-12-25T05:55:07.244Z,94.49
2022-12-25T05:57:34.376Z,94.47
2022-12-25T06:00:01.340Z,94.40
2022-12-25T06:02:28.411Z,94.50
2022-12-25T06:04:55.473Z,94.43
2022-12-25T06:07:22.562Z,94.61
2022-12-25T06:09:49.533Z,94.65
2022-12-25T06:12:16.603Z,94.96
2022-12-25T06:14:43.779Z,95.35
2022-12-25T06:17:10.938Z,95.12
2022-12-25T06:19:38.246Z,95.07
2022-12-25T06:22:05.263Z,95.24
2022-12-25T06:24:32.505Z,95.57
2022-12-25T06:26:59.482Z,95.40
2022-12-25T06:29:26.620Z,95.47
2022-12-25T06:31:57.533Z,95.24
2022-12-25T06:34:24.843Z,94.78
2022-12-25T06:36:51.915Z,94.53
2022-12-25T06:39:19.516Z,93.97
2022-12-25T06:41:46.479Z,93.54
2022-12-25T06:44:13.935Z,92.88
2022-12-25T06:46:40.875Z,92.81
2022-12-25T06:49:08.063Z,92.31
2022-12-25T06:51:35.060Z,91.77
2022-12-25T06:54:05.397Z,91.52
2022-12-25T06:56:35.568Z,90.64
2022-12-25T06:59:05.987Z,89.69
2022-12-25T07:01:48.581Z,89.54
2022-12-25T07:04:32.210Z,88.87
2022-12-25T07:07:04.413Z,88.99
2022-12-25T07:09:35.835Z,88.23
2022-12-25T07:12:17.195Z,87.81
2022-12-25T07:14:45.509Z,86.96
2022-12-25T07:17:12.469Z,86.61
2022-12-25T07:19:44.755Z,86.25
2022-12-25T07:22:13.027Z,86.91
2022-12-25T07:24:41.628Z,87.00
2022-12-25T07:27:08.758Z,87.09
2022-12-25T07:29:35.749Z,87.05
2022-12-25T07:32:02.948Z,86.63
2022-12-25T07:34:29.975Z,86.75
2022-12-25T07:36:57.146Z,85.27
2022-12-25T07:39:24.105Z,84.98
2022-12-25T07:41:51.607Z,85.57
2022-12-25T07:44:18.923Z,85.29
2022-12-25T07:46:46.321Z,85.04
2022-12-25T07:49:13.395Z,85.83
2022-12-25T07:51:42.224Z,84.29
2022-12-25T07:54:09.283Z,82.94
2022-12-25T07:56:36.638Z,83.41
2022-12-25T07:59:03.681Z,84.00
2022-12-25T08:01:31.049Z,84.22
2022-12-25T08:04:01.214Z,84.28
2022-12-25T08:06:33.906Z,84.23
2022-12-25T08:09:07.574Z,83.35
2022-12-25T08:11:34.972Z,82.88
2022-12-25T08:14:02.224Z,82.06
2022-12-25T08:16:29.386Z,81.77
2022-12-25T08:18:56.403Z,80.42
2022-12-25T08:21:23.531Z,79.67
2022-12-25T08:23:50.577Z,79.85
2022-12-25T08:26:20.933Z,79.37
2022-12-25T08:28:49.604Z,78.12
2022-12-25T08:31:21.411Z,77.51
2022-12-25T08:33:49.977Z,77.41
2022-12-25T08:36:18.807Z,77.39
2022-12-25T08:38:47.188Z,76.35
2022-12-25T08:41:15.251Z,75.30
2022-12-25T08:43:42.917Z,74.98
2022-12-25T08:46:10.304Z,74.41
2022-12-25T08:48:37.663Z,73.11
2022-12-25T08:51:05.377Z,73.04
2022-12-25T08:53:32.349Z,73.30
2022-12-25T08:56:01.392Z,72.67
2022-12-25T08:58:28.838Z,72.56
2022-12-25T09:00:56.391Z,72.58
2022-12-25T09:03:24.278Z,73.86
2022-12-25T09:05:52.417Z,74.32
2022-12-25T09:08:20.345Z,74.76
2022-12-25T09:10:48.161Z,74.95
2022-12-25T09:13:15.255Z,74.13
2022-12-25T09:15:42.403Z,74.01
2022-12-25T09:18:09.534Z,73.51
2022-12-25T09:20:36.507Z,74.01
2022-12-25T09:23:07.212Z,74.26
2022-12-25T09:25:37.024Z,73.49
2022-12-25T09:28:04.360Z,73.18
2022-12-25T09:30:31.517Z,72.69
2022-12-25T09:32:58.672Z,72.27
2022-12-25T09:35:25.877Z,71.52
2022-12-25T09:37:54.775Z,69.88
2022-12-25T09:40:30.392Z,70.11
2022-12-25T09:42:59.007Z,69.86
2022-12-25T09:45:33.090Z,69.18
2022-12-25T09:48:00.285Z,67.79
2022-12-25T09:50:50.471Z,67.93
2022-12-25T09:53:27.099Z,66.47
2022-12-25T09:56:16.806Z,66.25
2022-12-25T09:58:44.326Z,64.93
2022-12-25T10:01:17.494Z,64.86
2022-12-25T10:03:53.641Z,64.59
2022-12-25T10:06:32.737Z,64.85
2022-12-25T10:09:19.512Z,64.04
2022-12-25T10:12:24.089Z,65.21
2022-12-25T10:15:10.622Z,64.86
2022-12-25T10:17:52.832Z,64.57
2022-12-25T10:20:34.727Z,64.42
2022-12-25T10:23:04.587Z,64.87
2022-12-25T10:25:32.840Z,63.39
2022-12-25T10:28:11.976Z,63.04
2022-12-25T10:30:42.644Z,62.80
2022-12-25T10:33:16.933Z,62.78
2022-12-25T10:35:45.618Z,63.87
2022-12-25T10:38:18.871Z,63.16
2022-12-25T10:41:10.040Z,62.90
2022-12-25T10:44:06.188Z,62.77
2022-12-25T10:46:33.454Z,62.28
2022-12-25T10:49:03.002Z,63.26
2022-12-25T10:51:35.742Z,63.41
2022-12-25T10:54:23.953Z,63.36
2022-12-25T10:57:02.292Z,64.53
2022-12-25T10:59:34.731Z,65.15
2022-12-25T11:02:20.636Z,66.18
2022-12-25T11:04:48.563Z,66.16
2022-12-25T11:07:26.400Z,66.94
2022-12-25T11:10:20.993Z,64.88
2022-12-25T11:12:51.075Z,65.08
2022-12-25T11:15:39.318Z,66.75
2022-12-25T11:18:29.676Z,69.29
2022-12-25T11:21:16.536Z,71.27
2022-12-25T11:23:49.832Z,70.16
2022-12-25T11:26:19.082Z,70.10
2022-12-25T11:28:46.700Z,68.45
2022-12-25T11:31:16.934Z,67.69
2022-12-25T11:33:55.144Z,68.91
2022-12-25T11:36:48.777Z,69.63
2022-12-25T11:39:28.438Z,69.77
2022-12-25T11:42:05.644Z,69.08
2022-12-25T11:45:00.881Z,69.61
2022-12-25T11:47:45.117Z,70.92
2022-12-25T11:50:20.433Z,72.37
2022-12-25T11:52:48.799Z,73.79
2022-12-25T11:55:22.597Z,72.76
2022-12-25T11:57:56.871Z,73.56
2022-12-25T12:00:24.294Z,73.22
2022-12-25T12:03:03.461Z,70.96
2022-12-25T12:05:43.013Z,70.48
2022-12-25T12:08:11.473Z,69.55
2022-12-25T12:11:01.099Z,67.84
2022-12-25T12:13:50.460Z,69.60
2022-12-25T12:16:17.660Z,67.86
2022-12-25T12:18:50.418Z,67.39
2022-12-25T12:21:17.961Z,66.29
2022-12-25T12:24:09.580Z,67.71
2022-12-25T12:26:41.123Z,68.17
2022-12-25T12:29:29.496Z,68.12
2022-12-25T12:32:02.145Z,67.78
2022-12-25T12:34:50.706Z,69.08
2022-12-25T12:37:25.191Z,68.92
2022-12-25T12:39:56.320Z,70.37
2022-12-25T12:42:31.639Z,71.95
2022-12-25T12:45:16.105Z,70.28
2022-12-25T12:47:48.996Z,71.50
2022-12-25T12:50:38.289Z,68.82
2022-12-25T12:53:23.755Z,70.18
2022-12-25T12:55:52.473Z,69.38
2022-12-25T12:58:35.337Z,68.81
2022-12-25T13:02:05.261Z,68.04
2022-12-25T13:04:52.229Z,69.25
2022-12-25T13:07:45.571Z,71.49
2022-12-25T13:10:12.513Z,72.15
2022-12-25T13:12:39.740Z,70.67
2022-12-25T13:15:14.640Z,68.93
2022-12-25T13:17:46.941Z,68.72
2022-12-25T13:20:38.787Z,68.41
2022-12-25T13:23:28.916Z,67.80
2022-12-25T13:26:17.102Z,69.19
2022-12-25T13:28:47.094Z,68.72
2022-12-25T13:31:14.225Z,69.19
2022-12-25T13:33:46.323Z,69.98
2022-12-25T13:36:14.662Z,67.28
2022-12-25T13:38:50.823Z,67.73
2022-12-25T13:41:43.681Z,69.21
2022-12-25T13:44:29.039Z,69.49
2022-12-25T13:46:56.162Z,69.54
2022-12-25T13:49:24.639Z,68.95
2022-12-25T13:51:52.041Z,68.47
2022-12-25T13:54:19.484Z,65.95
2022-12-25T13:56:55.624Z,67.44
2022-12-25T13:59:25.550Z,65.62
2022-12-25T14:01:54.217Z,65.18
2022-12-25T14:04:24.445Z,66.10
2022-12-25T14:06:52.748Z,65.86
2022-12-25T14:09:20.378Z,64.45
2022-12-25T14:11:52.422Z,63.99
2022-12-25T14:14:22.524Z,64.05
2022-12-25T14:16:53.535Z,64.37
2022-12-25T14:19:27.967Z,63.76
2022-12-25T14:22:18.588Z,63.90
2022-12-25T14:24:45.825Z,63.50
2022-12-25T14:27:23.338Z,63.69
2022-12-25T14:29:54.350Z,64.50
2022-12-25T14:32:24.370Z,64.78
2022-12-25T14:34:55.818Z,64.14
2022-12-25T14:37:32.690Z,64.10
2022-12-25T14:40:04.342Z,64.49
2022-12-25T14:42:35.210Z,64.37
2022-12-25T14:45:21.976Z,64.76
2022-12-25T14:47:54.086Z,64.14
2022-12-25T14:50:32.812Z,64.15
2022-12-25T14:53:01.641Z,64.42
2022-12-25T14:55:30.715Z,64.93
2022-12-25T14:58:06.476Z,65.20
2022-12-25T15:00:39.142Z,65.63
2022-12-25T15:03:25.304Z,65.73
2022-12-25T15:06:05.243Z,65.88
2022-12-25T15:08:35.060Z,66.51
2022-12-25T15:11:03.594Z,66.52
2022-12-25T15:13:31.898Z,66.90
2022-12-25T15:16:04.811Z,67.39
2022-12-25T15:18:41.743Z,67.95
2022-12-25T15:21:18.001Z,68.25
2022-12-25T15:23:45.319Z,68.27
2022-12-25T15:26:14.001Z,69.39
2022-12-25T15:28:41.179Z,69.47
2022-12-25T15:31:29.974Z,70.14
2022-12-25T15:34:00.286Z,70.28
2022-12-25T15:36:28.567Z,70.73
2022-12-25T15:38:55.990Z,70.99
2022-12-25T15:41:47.807Z,71.17
2022-12-25T15:44:15.511Z,71.33
2022-12-25T15:46:43.409Z,71.81
2022-12-25T15:49:11.070Z,71.70
2022-12-25T15:51:38.628Z,72.01
2022-12-25T15:54:05.680Z,71.98
2022-12-25T15:56:44.979Z,72.21
2022-12-25T15:59:13.378Z,72.18
2022-12-25T16:01:44.908Z,72.76
2022-12-25T16:04:12.151Z,72.78
2022-12-25T16:06:39.276Z,72.85
2022-12-25T16:09:06.433Z,72.90
2022-12-25T16:11:33.375Z,73.36
2022-12-25T16:14:00.502Z,73.37
2022-12-25T16:16:27.566Z,73.33
2022-12-25T16:18:54.558Z,73.87
2022-12-25T16:21:22.517Z,73.87
2022-12-25T16:23:49.667Z,73.89
2022-12-25T16:26:16.933Z,74.00
2022-12-25T16:28:43.919Z,74.44
2022-12-25T16:31:11.651Z,74.27
2022-12-25T16:33:38.780Z,74.42
2022-12-25T16:36:06.093Z,74.38
2022-12-25T16:38:34.258Z,74.44
2022-12-25T16:41:02.186Z,74.72
2022-12-25T16:43:29.265Z,74.71
2022-12-25T16:45:57.525Z,75.07
2022-12-25T16:48:24.852Z,74.74
2022-12-25T16:50:51.867Z,74.88
2022-12-25T16:53:21.848Z,75.01
2022-12-25T16:55:49.292Z,75.01
2022-12-25T16:58:16.279Z,75.09
2022-12-25T17:00:49.090Z,75.27
2022-12-25T17:03:16.663Z,75.75
2022-12-25T17:05:43.858Z,76.00
2022-12-25T17:08:10.840Z,76.49
2022-12-25T17:10:39.366Z,76.65
2022-12-25T17:13:06.529Z,76.58
2022-12-25T17:15:33.685Z,76.52
2022-12-25T17:18:00.683Z,77.02
2022-12-25T17:20:28.456Z,77.06
2022-12-25T17:22:58.915Z,77.20
2022-12-25T17:25:26.905Z,77.26
2022-12-25T17:27:53.866Z,77.20
2022-12-25T17:30:22.491Z,77.40
2022-12-25T17:32:51.121Z,77.10
2022-12-25T17:35:20.819Z,77.18
2022-12-25T17:37:47.847Z,77.22
2022-12-25T17:40:14.935Z,77.64
2022-12-25T17:42:42.061Z,77.50
2022-12-25T17:45:09.590Z,77.72
2022-12-25T17:47:36.594Z,77.69
2022-12-25T17:50:04.030Z,77.89
2022-12-25T17:52:31.009Z,77.58
2022-12-25T17:54:57.975Z,77.52
2022-12-25T17:57:25.177Z,77.55
2022-12-25T17:59:52.131Z,77.56
2022-12-25T18:02:19.299Z,77.74
2022-12-25T18:04:48.292Z,78.05
2022-12-25T18:07:16.030Z,78.06
2022-12-25T18:09:43.214Z,78.15
2022-12-25T18:12:10.198Z,78.23
2022-12-25T18:14:38.343Z,78.37
2022-12-25T18:17:06.163Z,78.52
2022-12-25T18:19:34.397Z,78.77
2022-12-25T18:22:01.719Z,78.90
2022-12-25T18:24:28.873Z,79.09
2022-12-25T18:26:56.068Z,79.06
2022-12-25T18:29:23.222Z,79.13
2022-12-25T18:31:50.487Z,79.51
2022-12-25T18:34:18.547Z,79.42
2022-12-25T18:36:45.751Z,79.50
2022-12-25T18:39:13.545Z,79.93
2022-12-25T18:42:00.558Z,79.98
2022-12-25T18:44:28.654Z,80.09
2022-12-25T18:46:55.996Z,80.27
2022-12-25T18:49:23.306Z,80.03
2022-12-25T18:51:50.680Z,80.12
2022-12-25T18:54:17.625Z,80.30
2022-12-25T18:56:48.406Z,80.51
2022-12-25T18:59:19.218Z,80.98
2022-12-25T19:01:46.484Z,81.00
2022-12-25T19:04:16.669Z,81.15
2022-12-25T19:06:43.966Z,81.31
2022-12-25T19:09:11.226Z,81.25
2022-12-25T19:11:45.982Z,81.38
2022-12-25T19:14:14.359Z,81.55
2022-12-25T19:16:41.531Z,81.42
2022-12-25T19:19:08.646Z,81.51
2022-12-25T19:21:35.850Z,81.71
2022-12-25T19:24:02.803Z,81.86
2022-12-25T19:26:30.665Z,81.99
2022-12-25T19:28:57.641Z,82.28
2022-12-25T19:31:25.932Z,82.39
2022-12-25T19:33:53.059Z,82.41
2022-12-25T19:36:21.894Z,82.74
2022-12-25T19:38:48.948Z,83.01
2022-12-25T19:41:18.835Z,82.98
2022-12-25T19:43:49.025Z,83.00
2022-12-25T19:46:26.031Z,82.54
2022-12-25T19:48:54.851Z,82.59
2022-12-25T19:51:28.076Z,82.71
2022-12-25T19:53:56.583Z,82.74
2022-12-25T19:56:30.528Z,82.96
2022-12-25T19:58:58.709Z,82.79
2022-12-25T20:01:28.187Z,82.85
2022-12-25T20:03:56.774Z,83.06
2022-12-25T20:06:33.761Z,83.29
2022-12-25T20:09:20.611Z,83.59
2022-12-25T20:11:48.346Z,83.83
2022-12-25T20:14:16.712Z,84.11
2022-12-25T20:16:44.616Z,83.93
2022-12-25T20:19:13.298Z,84.06
2022-12-25T20:21:40.645Z,84.36
2022-12-25T20:24:13.082Z,84.25
2022-12-25T20:26:42.873Z,84.33
2022-12-25T20:29:11.606Z,84.46
2022-12-25T20:31:38.639Z,84.67
2022-12-25T20:34:11.014Z,84.76
2022-12-25T20:36:38.493Z,84.62
2022-12-25T20:39:11.346Z,84.74
2022-12-25T20:41:40.662Z,84.97
2022-12-25T20:44:10.377Z,84.87
2022-12-25T20:46:38.006Z,85.09
2022-12-25T20:49:06.374Z,85.45
2022-12-25T20:51:33.622Z,85.62
2022-12-25T20:54:01.385Z,85.66
2022-12-25T20:56:30.209Z,85.92
2022-12-25T20:58:59.224Z,86.14
2022-12-25T21:01:28.591Z,86.00
2022-12-25T21:03:56.308Z,86.00
2022-12-25T21:06:24.008Z,86.12
2022-12-25T21:08:51.340Z,86.02
2022-12-25T21:11:18.572Z,85.94
2022-12-25T21:13:47.100Z,86.09
2022-12-25T21:16:18.871Z,86.44
2022-12-25T21:18:46.485Z,86.34
2022-12-25T21:21:13.998Z,86.49
2022-12-25T21:23:41.411Z,86.52
2022-12-25T21:26:22.137Z,86.67
2022-12-25T21:28:51.444Z,86.96
2022-12-25T21:31:18.942Z,87.16
2022-12-25T21:33:52.860Z,87.42
2022-12-25T21:36:32.019Z,87.49
2022-12-25T21:39:05.289Z,87.89
2022-12-25T21:41:33.843Z,88.00
2022-12-25T21:44:01.434Z,88.21
2022-12-25T21:46:29.514Z,88.19
2022-12-25T21:48:57.119Z,88.48
2022-12-25T21:51:49.483Z,88.46
2022-12-25T21:54:18.647Z,88.63
2022-12-25T21:56:47.388Z,88.99
2022-12-25T21:59:18.184Z,89.06
2022-12-25T22:01:46.785Z,88.90
2022-12-25T22:04:15.854Z,88.93
2022-12-25T22:07:02.118Z,89.03
2022-12-25T22:09:29.333Z,89.28
2022-12-25T22:12:16.819Z,89.33
2022-12-25T22:14:54.249Z,89.35
2022-12-25T22:17:44.259Z,89.89
2022-12-25T22:20:18.258Z,89.93
2022-12-25T22:22:46.088Z,90.16
2022-12-25T22:25:14.075Z,90.41
2022-12-25T22:27:43.261Z,90.60
2022-12-25T22:30:17.339Z,90.78
2022-12-25T22:32:46.735Z,91.03
2022-12-25T22:35:16.733Z,90.94
2022-12-25T22:37:44.202Z,91.12
2022-12-25T22:40:14.642Z,91.30
2022-12-25T22:42:42.344Z,91.63
2022-12-25T22:45:09.929Z,91.56
2022-12-25T22:47:37.151Z,91.71
2022-12-25T22:50:05.206Z,91.74
2022-12-25T22:52:32.333Z,91.85
2022-12-25T22:54:59.302Z,92.15
2022-12-25T22:57:26.507Z,92.26
2022-12-25T22:59:54.513Z,92.36
2022-12-25T23:02:22.020Z,92.92
2022-12-25T23:04:49.572Z,93.16
2022-12-25T23:07:17.081Z,92.98
2022-12-25T23:09:44.670Z,92.98
2022-12-25T23:12:31.991Z,92.93
2022-12-25T23:14:59.280Z,92.93
2022-12-25T23:17:45.020Z,93.26
2022-12-25T23:20:32.982Z,93.43
2022-12-25T23:23:18.972Z,93.50
2022-12-25T23:26:06.003Z,93.86
2022-12-25T23:28:51.780Z,93.99
2022-12-25T23:31:20.806Z,94.29
2022-12-25T23:33:47.787Z,94.12
2022-12-25T23:36:14.811Z,94.66
2022-12-25T23:38:41.873Z,94.60
2022-12-25T23:41:08.842Z,94.88
2022-12-25T23:43:37.014Z,94.94
2022-12-25T23:46:04.245Z,95.06
2022-12-25T23:48:31.340Z,95.05
2022-12-25T23:51:03.524Z,95.42
2022-12-25T23:53:31.196Z,95.38
2022-12-25T23:55:58.797Z,95.74
2022-12-25T23:58:27.003Z,96.20
